createdAt,value
2018-12-11T00:00:22.560Z,20.77
2018-12-11T00:02:51.138Z,21.87
2018-12-11T00:05:19.712Z,19.97
2018-12-11T00:07:48.349Z,19.83
2018-12-11T00:10:17.218Z,20.33
2018-12-11T00:12:46.163Z,21.03
2018-12-11T00:15:14.849Z,19.37
2018-12-11T00:17:43.398Z,19.10
2018-12-11T00:20:12.052Z,20.10
2018-12-11T00:22:40.598Z,19.33
2018-12-11T00:25:09.380Z,20.37
2018-12-11T00:27:37.940Z,23.93
2018-12-11T00:30:07.192Z,24.80
2018-12-11T00:32:35.805Z,22.77
2018-12-11T00:35:05.020Z,23.37
2018-12-11T00:37:33.714Z,22.83
2018-12-11T00:40:02.486Z,23.07
2018-12-11T00:42:31.144Z,24.23
2018-12-11T00:44:59.846Z,22.33
2018-12-11T00:47:28.448Z,22.27
2018-12-11T00:49:57.245Z,22.23
2018-12-11T00:52:25.823Z,21.60
2018-12-11T00:54:54.315Z,21.87
2018-12-11T00:57:23.001Z,21.67
2018-12-11T00:59:51.505Z,20.63
2018-12-11T01:02:20.195Z,21.27
2018-12-11T01:04:48.791Z,22.47
2018-12-11T01:07:17.289Z,20.30
2018-12-11T01:09:45.908Z,18.17
2018-12-11T01:12:14.504Z,17.60
2018-12-11T01:14:43.333Z,17.17
2018-12-11T01:17:11.872Z,18.40
2018-12-11T01:19:40.563Z,17.80
2018-12-11T01:22:09.175Z,17.13
2018-12-11T01:24:37.655Z,16.57
2018-12-11T01:27:06.217Z,16.43
2018-12-11T01:29:34.859Z,15.33
2018-12-11T01:32:03.981Z,15.60
2018-12-11T01:34:32.471Z,14.87
2018-12-11T01:37:01.354Z,14.67
2018-12-11T01:39:29.881Z,13.13
2018-12-11T01:41:58.472Z,13.77
2018-12-11T01:44:27.089Z,12.03
2018-12-11T01:46:55.592Z,12.27
2018-12-11T01:49:24.121Z,14.43
2018-12-11T01:51:52.802Z,14.00
2018-12-11T01:54:21.318Z,14.63
2018-12-11T01:56:49.921Z,15.43
2018-12-11T01:59:18.444Z,16.17
2018-12-11T02:01:47.278Z,15.67
2018-12-11T02:04:15.880Z,16.00
2018-12-11T02:06:44.452Z,15.80
2018-12-11T02:09:13.178Z,14.23
2018-12-11T02:11:41.808Z,12.87
2018-12-11T02:14:10.285Z,13.47
2018-12-11T02:16:39.044Z,11.90
2018-12-11T02:19:07.722Z,11.93
2018-12-11T02:21:41.910Z,11.03
2018-12-11T02:24:07.012Z,12.63
2018-12-11T02:26:35.740Z,12.27
2018-12-11T02:29:04.619Z,12.73
2018-12-11T02:31:33.272Z,10.20
2018-12-11T02:34:01.936Z,10.43
2018-12-11T02:36:30.675Z,10.00
2018-12-11T02:38:59.465Z,8.50
2018-12-11T02:41:27.975Z,9.00
2018-12-11T02:43:56.633Z,10.03
2018-12-11T02:46:25.363Z,8.87
2018-12-11T02:48:54.019Z,8.57
2018-12-11T02:51:22.715Z,8.70
2018-12-11T02:53:51.319Z,8.57
2018-12-11T02:56:19.951Z,8.60
2018-12-11T02:58:48.492Z,7.53
2018-12-11T03:01:17.216Z,7.33
2018-12-11T03:03:45.955Z,6.90
2018-12-11T03:06:14.624Z,7.43
2018-12-11T03:08:43.605Z,7.97
2018-12-11T03:11:12.818Z,6.13
2018-12-11T03:13:41.711Z,6.63
2018-12-11T03:16:10.386Z,8.17
2018-12-11T03:18:39.396Z,6.57
2018-12-11T03:21:08.199Z,5.03
2018-12-11T03:23:37.180Z,6.10
2018-12-11T03:26:05.951Z,5.80
2018-12-11T03:28:34.610Z,5.23
2018-12-11T03:31:03.608Z,5.30
2018-12-11T03:33:32.434Z,5.30
2018-12-11T03:36:01.277Z,4.20
2018-12-11T03:38:30.078Z,4.70
2018-12-11T03:40:58.767Z,4.70
2018-12-11T03:43:27.459Z,3.70
2018-12-11T03:45:56.330Z,3.50
2018-12-11T03:48:25.186Z,2.97
2018-12-11T03:50:53.846Z,3.33
2018-12-11T03:53:22.692Z,4.17
2018-12-11T03:55:51.526Z,3.00
2018-12-11T03:58:20.289Z,2.60
2018-12-11T04:00:49.145Z,3.20
2018-12-11T04:03:18.017Z,3.20
2018-12-11T04:05:46.776Z,3.17
2018-12-11T04:08:15.533Z,3.47
2018-12-11T04:10:44.304Z,4.07
2018-12-11T04:13:13.098Z,4.73
2018-12-11T04:15:41.798Z,5.43
2018-12-11T04:18:10.500Z,4.70
2018-12-11T04:20:39.470Z,4.27
2018-12-11T04:23:08.192Z,4.33
2018-12-11T04:25:37.092Z,4.70
2018-12-11T04:28:05.822Z,4.30
2018-12-11T04:30:34.657Z,4.17
2018-12-11T04:33:03.547Z,4.87
2018-12-11T04:35:32.227Z,4.87
2018-12-11T04:38:00.713Z,3.60
2018-12-11T04:40:29.427Z,3.57
2018-12-11T04:42:58.031Z,2.60
2018-12-11T04:45:26.665Z,2.70
2018-12-11T04:47:55.470Z,2.40
2018-12-11T04:50:23.965Z,1.87
2018-12-11T04:52:52.444Z,1.70
2018-12-11T04:55:20.947Z,1.50
2018-12-11T04:57:49.545Z,2.07
2018-12-11T05:00:18.266Z,2.20
2018-12-11T05:02:47.071Z,2.30
2018-12-11T05:05:16.151Z,2.77
2018-12-11T05:07:45.687Z,2.47
2018-12-11T05:10:14.457Z,2.63
2018-12-11T05:12:43.307Z,4.07
2018-12-11T05:15:12.013Z,2.53
2018-12-11T05:17:40.918Z,2.10
2018-12-11T05:20:10.255Z,1.90
2018-12-11T05:22:38.917Z,2.07
2018-12-11T05:25:07.705Z,2.23
2018-12-11T05:27:36.450Z,2.93
2018-12-11T05:30:07.012Z,2.27
2018-12-11T05:32:35.731Z,2.60
2018-12-11T05:35:05.090Z,3.23
2018-12-11T05:37:33.820Z,2.43
2018-12-11T05:40:02.520Z,2.43
2018-12-11T05:42:32.087Z,2.50
2018-12-11T05:45:00.948Z,2.73
2018-12-11T05:47:31.069Z,3.60
2018-12-11T05:50:00.237Z,3.60
2018-12-11T05:52:29.098Z,3.00
2018-12-11T05:54:57.867Z,3.37
2018-12-11T05:57:26.836Z,4.10
2018-12-11T05:59:55.667Z,2.70
2018-12-11T06:02:24.421Z,26.03
2018-12-11T06:04:53.897Z,26.77
2018-12-11T06:07:22.852Z,8.40
2018-12-11T06:09:52.175Z,3.97
2018-12-11T06:12:20.995Z,3.10
2018-12-11T06:14:50.671Z,3.37
2018-12-11T06:17:19.452Z,4.47
2018-12-11T06:19:48.190Z,3.37
2018-12-11T06:22:16.828Z,3.50
2018-12-11T06:24:45.488Z,10.23
2018-12-11T06:27:14.063Z,7.73
2018-12-11T06:29:42.675Z,6.00
2018-12-11T06:32:12.266Z,5.33
2018-12-11T06:34:41.004Z,6.47
2018-12-11T06:37:09.699Z,3.27
2018-12-11T06:39:38.763Z,2.70
2018-12-11T06:42:07.297Z,2.60
2018-12-11T06:44:35.864Z,2.20
2018-12-11T06:47:04.416Z,4.70
2018-12-11T06:49:33.088Z,2.57
2018-12-11T06:52:01.789Z,2.10
2018-12-11T06:54:30.854Z,2.50
2018-12-11T06:56:59.882Z,2.83
2018-12-11T06:59:28.439Z,3.50
2018-12-11T07:01:57.340Z,3.73
2018-12-11T07:04:26.160Z,3.50
2018-12-11T07:06:54.687Z,3.73
2018-12-11T07:09:23.362Z,10.23
2018-12-11T07:11:52.048Z,9.20
2018-12-11T07:14:20.634Z,5.07
2018-12-11T07:16:50.028Z,6.13
2018-12-11T07:19:18.823Z,4.90
2018-12-11T07:21:47.727Z,5.27
2018-12-11T07:24:16.246Z,4.20
2018-12-11T07:26:45.507Z,4.00
2018-12-11T07:29:14.271Z,4.23
2018-12-11T07:31:42.955Z,5.43
2018-12-11T07:34:11.765Z,3.70
2018-12-11T07:36:40.526Z,5.20
2018-12-11T07:39:09.351Z,4.27
2018-12-11T07:41:38.045Z,3.57
2018-12-11T07:44:06.665Z,4.60
2018-12-11T07:46:35.449Z,5.60
2018-12-11T07:49:04.243Z,4.40
2018-12-11T07:51:32.964Z,4.10
2018-12-11T07:54:01.490Z,4.77
2018-12-11T07:56:30.424Z,5.77
2018-12-11T07:58:59.041Z,5.23
2018-12-11T08:01:27.565Z,4.47
2018-12-11T08:03:56.206Z,3.90
2018-12-11T08:06:24.974Z,5.17
2018-12-11T08:08:54.274Z,6.03
2018-12-11T08:11:22.879Z,5.30
2018-12-11T08:13:52.365Z,4.80
2018-12-11T08:16:21.657Z,3.93
2018-12-11T08:18:50.744Z,3.80
2018-12-11T08:21:19.595Z,3.80
2018-12-11T08:23:48.484Z,4.23
2018-12-11T08:26:17.075Z,3.53
2018-12-11T08:28:45.645Z,4.10
2018-12-11T08:31:14.177Z,4.13
2018-12-11T08:33:42.756Z,3.53
2018-12-11T08:36:11.681Z,5.00
2018-12-11T08:38:40.181Z,4.43
2018-12-11T08:41:08.970Z,3.87
2018-12-11T08:43:37.486Z,5.37
2018-12-11T08:46:06.129Z,4.07
2018-12-11T08:48:35.504Z,3.70
2018-12-11T08:51:04.762Z,3.20
2018-12-11T08:53:35.327Z,3.73
2018-12-11T08:56:04.608Z,4.83
2018-12-11T08:58:34.180Z,4.07
2018-12-11T09:01:02.745Z,4.00
2018-12-11T09:03:31.347Z,4.27
2018-12-11T09:06:00.989Z,4.33
2018-12-11T09:08:29.511Z,4.13
2018-12-11T09:10:58.110Z,3.93
2018-12-11T09:13:27.613Z,4.20
2018-12-11T09:15:56.332Z,4.57
2018-12-11T09:18:25.580Z,3.20
2018-12-11T09:20:54.085Z,3.07
2018-12-11T09:23:23.469Z,3.13
2018-12-11T09:25:53.141Z,4.60
2018-12-11T09:28:22.329Z,2.93
2018-12-11T09:30:51.226Z,2.90
2018-12-11T09:33:23.174Z,3.20
2018-12-11T09:35:52.580Z,3.07
2018-12-11T09:38:21.391Z,3.70
2018-12-11T09:40:50.152Z,3.40
2018-12-11T09:43:18.803Z,3.07
2018-12-11T09:45:47.454Z,4.57
2018-12-11T09:48:17.428Z,3.27
2018-12-11T09:50:47.083Z,3.70
2018-12-11T09:53:15.767Z,4.67
2018-12-11T09:55:45.050Z,3.93
2018-12-11T09:58:14.151Z,6.73
2018-12-11T10:00:43.185Z,5.47
2018-12-11T10:03:11.813Z,5.20
2018-12-11T10:05:40.364Z,3.70
2018-12-11T10:08:08.901Z,4.00
2018-12-11T10:10:37.565Z,4.30
2018-12-11T10:13:06.313Z,4.50
2018-12-11T10:15:35.601Z,4.67
2018-12-11T10:18:04.928Z,4.93
2018-12-11T10:20:33.615Z,3.80
2018-12-11T10:23:03.109Z,4.50
2018-12-11T10:25:31.797Z,5.20
2018-12-11T10:28:00.412Z,3.90
2018-12-11T10:30:33.148Z,4.07
2018-12-11T10:33:01.842Z,2.97
2018-12-11T10:35:30.374Z,2.60
2018-12-11T10:37:58.996Z,2.47
2018-12-11T10:40:27.729Z,2.43
2018-12-11T10:42:56.439Z,3.93
2018-12-11T10:45:24.953Z,3.60
2018-12-11T10:47:53.597Z,3.80
2018-12-11T10:50:23.250Z,4.90
2018-12-11T10:52:53.167Z,4.83
2018-12-11T10:55:21.941Z,3.63
2018-12-11T10:57:50.720Z,3.97
2018-12-11T11:00:24.648Z,4.00
2018-12-11T11:02:59.321Z,4.53
2018-12-11T11:05:27.959Z,5.70
2018-12-11T11:07:57.596Z,3.97
2018-12-11T11:10:26.766Z,4.20
2018-12-11T11:12:55.314Z,2.40
2018-12-11T11:15:24.019Z,3.00
2018-12-11T11:17:53.208Z,2.77
2018-12-11T11:20:22.531Z,2.37
2018-12-11T11:22:51.222Z,3.50
2018-12-11T11:25:19.735Z,2.33
2018-12-11T11:27:48.564Z,3.07
2018-12-11T11:30:17.173Z,3.73
2018-12-11T11:32:46.067Z,3.00
2018-12-11T11:35:14.885Z,3.30
2018-12-11T11:37:43.385Z,4.30
2018-12-11T11:40:12.857Z,2.50
2018-12-11T11:42:41.853Z,8.00
2018-12-11T11:45:11.456Z,17.37
2018-12-11T11:47:40.172Z,8.43
2018-12-11T11:50:11.976Z,14.73
2018-12-11T11:52:40.727Z,16.00
2018-12-11T11:55:09.333Z,42.87
2018-12-11T11:57:38.943Z,46.93
2018-12-11T12:00:10.647Z,26.67
2018-12-11T12:02:40.390Z,11.07
2018-12-11T12:05:08.963Z,14.20
2018-12-11T12:07:37.557Z,16.47
2018-12-11T12:10:11.446Z,20.07
2018-12-11T12:12:40.731Z,11.87
2018-12-11T12:15:10.138Z,9.43
2018-12-11T12:17:38.973Z,5.67
2018-12-11T12:20:09.834Z,5.03
2018-12-11T12:22:39.077Z,3.90
2018-12-11T12:25:07.960Z,3.93
2018-12-11T12:27:36.573Z,3.90
2018-12-11T12:30:07.016Z,4.33
2018-12-11T12:32:36.032Z,3.80
2018-12-11T12:35:06.360Z,3.80
2018-12-11T12:37:35.093Z,4.90
2018-12-11T12:40:04.890Z,4.70
2018-12-11T12:42:34.863Z,4.40
2018-12-11T12:45:03.604Z,3.53
2018-12-11T12:47:32.253Z,3.23
2018-12-11T12:50:00.876Z,3.40
2018-12-11T12:52:30.267Z,3.10
2018-12-11T12:54:59.040Z,3.80
2018-12-11T12:57:27.859Z,3.70
2018-12-11T12:59:56.618Z,3.40
2018-12-11T13:02:25.110Z,3.93
2018-12-11T13:04:53.936Z,3.97
2018-12-11T13:07:22.502Z,3.63
2018-12-11T13:09:51.130Z,3.60
2018-12-11T13:12:19.957Z,3.50
2018-12-11T13:14:49.064Z,3.17
2018-12-11T13:17:18.119Z,2.90
2018-12-11T13:19:47.537Z,3.53
2018-12-11T13:22:17.076Z,3.97
2018-12-11T13:24:46.041Z,3.47
2018-12-11T13:27:14.616Z,4.13
2018-12-11T13:29:43.389Z,3.43
2018-12-11T13:32:12.614Z,3.37
2018-12-11T13:34:42.222Z,4.53
2018-12-11T13:37:11.370Z,3.77
2018-12-11T13:39:40.059Z,3.67
2018-12-11T13:42:09.044Z,3.93
2018-12-11T13:44:37.951Z,4.03
2018-12-11T13:47:07.460Z,3.97
2018-12-11T13:49:36.272Z,3.73
2018-12-11T13:52:05.184Z,3.97
2018-12-11T13:54:33.764Z,4.10
2018-12-11T13:57:02.682Z,4.60
2018-12-11T13:59:31.535Z,4.60
2018-12-11T14:02:00.437Z,5.23
2018-12-11T14:04:29.471Z,6.60
2018-12-11T14:06:59.417Z,7.20
2018-12-11T14:09:34.161Z,6.63
2018-12-11T14:12:02.884Z,5.83
2018-12-11T14:14:32.167Z,5.83
2018-12-11T14:17:01.489Z,6.67
2018-12-11T14:19:31.715Z,6.43
2018-12-11T14:22:01.299Z,6.50
2018-12-11T14:24:30.260Z,7.03
2018-12-11T14:27:00.491Z,8.80
2018-12-11T14:29:29.437Z,7.60
2018-12-11T14:31:58.178Z,6.43
2018-12-11T14:34:27.252Z,5.90
2018-12-11T14:36:56.325Z,5.63
2018-12-11T14:39:26.185Z,6.27
2018-12-11T14:41:55.746Z,5.80
2018-12-11T14:44:24.654Z,6.03
2018-12-11T14:46:54.419Z,6.17
2018-12-11T14:49:24.497Z,6.00
2018-12-11T14:51:53.687Z,6.73
2018-12-11T14:54:23.218Z,6.27
2018-12-11T14:56:52.073Z,6.07
2018-12-11T14:59:21.130Z,9.70
2018-12-11T15:01:49.755Z,7.27
2018-12-11T15:04:21.448Z,6.83
2018-12-11T15:06:50.567Z,6.83
2018-12-11T15:09:25.209Z,6.30
2018-12-11T15:11:55.404Z,5.10
2018-12-11T15:14:25.186Z,5.30
2018-12-11T15:16:53.969Z,5.90
2018-12-11T15:19:22.970Z,6.00
2018-12-11T15:21:52.639Z,9.53
2018-12-11T15:24:22.550Z,7.30
2018-12-11T15:26:52.368Z,6.83
2018-12-11T15:29:21.869Z,6.93
2018-12-11T15:31:50.691Z,7.33
2018-12-11T15:34:20.508Z,5.70
2018-12-11T15:36:50.019Z,6.00
2018-12-11T15:39:19.243Z,7.00
2018-12-11T15:41:48.909Z,6.00
2018-12-11T15:44:18.733Z,7.30
2018-12-11T15:46:48.570Z,6.73
2018-12-11T15:49:17.648Z,8.50
2018-12-11T15:51:46.505Z,7.63
2018-12-11T15:54:15.577Z,9.90
2018-12-11T15:56:45.199Z,9.90
2018-12-11T15:59:14.662Z,10.77
2018-12-11T16:01:43.694Z,9.73
2018-12-11T16:04:13.875Z,12.53
2018-12-11T16:06:42.641Z,9.83
2018-12-11T16:09:12.280Z,13.30
2018-12-11T16:11:41.210Z,11.50
2018-12-11T16:14:09.792Z,11.10
2018-12-11T16:16:39.051Z,9.50
2018-12-11T16:19:07.923Z,9.40
2018-12-11T16:21:36.711Z,14.73
2018-12-11T16:24:05.616Z,14.27
2018-12-11T16:26:34.487Z,13.97
2018-12-11T16:29:03.338Z,13.27
2018-12-11T16:31:32.257Z,12.73
2018-12-11T16:34:01.101Z,10.53
2018-12-11T16:36:30.802Z,9.03
2018-12-11T16:38:59.584Z,9.70
2018-12-11T16:41:28.455Z,9.57
2018-12-11T16:43:57.137Z,9.60
2018-12-11T16:46:26.002Z,9.50
2018-12-11T16:48:54.659Z,8.80
2018-12-11T16:51:23.327Z,7.97
2018-12-11T16:53:52.721Z,7.43
2018-12-11T16:56:21.891Z,7.07
2018-12-11T16:58:50.935Z,7.20
2018-12-11T17:01:19.817Z,7.13
2018-12-11T17:03:48.898Z,7.17
2018-12-11T17:06:17.547Z,7.60
2018-12-11T17:08:46.634Z,7.23
2018-12-11T17:11:15.803Z,7.90
2018-12-11T17:13:48.913Z,8.10
2018-12-11T17:16:18.395Z,9.53
2018-12-11T17:18:47.400Z,9.30
2018-12-11T17:21:16.091Z,10.33
2018-12-11T17:23:44.881Z,11.80
2018-12-11T17:26:13.848Z,10.47
2018-12-11T17:28:42.666Z,9.37
2018-12-11T17:31:11.313Z,9.23
2018-12-11T17:33:41.786Z,8.27
2018-12-11T17:36:10.294Z,8.63
2018-12-11T17:38:39.896Z,8.60
2018-12-11T17:41:08.596Z,10.57
2018-12-11T17:43:37.385Z,10.70
2018-12-11T17:46:06.234Z,9.63
2018-12-11T17:48:41.417Z,9.80
2018-12-11T17:51:09.196Z,9.60
2018-12-11T17:53:41.457Z,10.37
2018-12-11T17:56:10.553Z,9.47
2018-12-11T17:58:39.584Z,9.20
2018-12-11T18:01:10.662Z,7.60
2018-12-11T18:03:40.106Z,8.73
2018-12-11T18:06:09.998Z,8.93
2018-12-11T18:08:42.446Z,9.50
2018-12-11T18:11:11.222Z,8.03
2018-12-11T18:13:40.602Z,8.93
2018-12-11T18:16:10.532Z,8.87
2018-12-11T18:18:39.365Z,8.33
2018-12-11T18:21:09.436Z,13.00
2018-12-11T18:23:38.964Z,10.07
2018-12-11T18:26:08.126Z,14.30
2018-12-11T18:28:38.783Z,18.23
2018-12-11T18:31:07.570Z,13.63
2018-12-11T18:33:38.569Z,13.87
2018-12-11T18:36:10.143Z,15.30
2018-12-11T18:38:39.936Z,11.87
2018-12-11T18:41:12.050Z,11.63
2018-12-11T18:43:41.123Z,12.43
2018-12-11T18:46:09.941Z,12.73
2018-12-11T18:48:39.737Z,10.83
2018-12-11T18:51:09.796Z,11.20
2018-12-11T18:53:40.725Z,10.00
2018-12-11T18:56:09.502Z,9.33
2018-12-11T18:58:39.248Z,10.40
2018-12-11T19:01:08.264Z,10.77
2018-12-11T19:03:36.951Z,10.03
2018-12-11T19:06:05.538Z,11.27
2018-12-11T19:08:35.091Z,10.13
2018-12-11T19:11:04.711Z,10.17
2018-12-11T19:13:35.246Z,10.87
2018-12-11T19:16:05.155Z,12.10
2018-12-11T19:18:34.837Z,11.53
2018-12-11T19:21:04.692Z,11.77
2018-12-11T19:23:45.101Z,15.00
2018-12-11T19:26:15.605Z,14.33
2018-12-11T19:28:45.091Z,17.17
2018-12-11T19:31:15.635Z,15.20
2018-12-11T19:33:45.236Z,14.70
2018-12-11T19:36:15.440Z,13.67
2018-12-11T19:38:45.781Z,14.33
2018-12-11T19:41:15.982Z,13.40
2018-12-11T19:43:45.580Z,12.03
2018-12-11T19:46:15.038Z,12.37
2018-12-11T19:48:44.519Z,12.13
2018-12-11T19:51:13.949Z,10.90
2018-12-11T19:53:43.997Z,9.47
2018-12-11T19:56:13.436Z,10.50
2018-12-11T19:58:43.589Z,10.97
2018-12-11T20:01:12.591Z,11.80
2018-12-11T20:03:42.171Z,11.27
2018-12-11T20:06:11.388Z,13.10
2018-12-11T20:08:40.553Z,11.20
2018-12-11T20:11:09.339Z,10.43
2018-12-11T20:13:38.184Z,8.73
2018-12-11T20:16:06.829Z,9.13
2018-12-11T20:18:35.655Z,8.37
2018-12-11T20:21:04.603Z,7.57
2018-12-11T20:23:33.473Z,10.13
2018-12-11T20:26:02.195Z,10.13
2018-12-11T20:28:30.902Z,9.53
2018-12-11T20:30:59.985Z,8.77
2018-12-11T20:33:28.706Z,8.20
2018-12-11T20:35:57.308Z,8.27
2018-12-11T20:38:26.151Z,9.00
2018-12-11T20:40:55.013Z,10.03
2018-12-11T20:43:24.547Z,8.57
2018-12-11T20:45:53.468Z,9.17
2018-12-11T20:48:23.257Z,11.20
2018-12-11T20:50:52.296Z,8.50
2018-12-11T20:53:21.722Z,8.13
2018-12-11T20:55:50.689Z,7.93
2018-12-11T20:58:19.486Z,8.43
2018-12-11T21:00:48.548Z,9.20
2018-12-11T21:03:17.227Z,8.27
2018-12-11T21:05:46.458Z,6.40
2018-12-11T21:08:17.681Z,6.20
2018-12-11T21:10:46.927Z,7.40
2018-12-11T21:13:15.957Z,7.80
2018-12-11T21:15:44.914Z,7.37
2018-12-11T21:18:14.537Z,7.13
2018-12-11T21:20:43.045Z,6.93
2018-12-11T21:23:12.037Z,6.60
2018-12-11T21:25:41.161Z,5.43
2018-12-11T21:28:09.765Z,6.33
2018-12-11T21:30:38.323Z,6.80
2018-12-11T21:33:06.559Z,5.80
2018-12-11T21:35:35.290Z,6.33
2018-12-11T21:38:03.976Z,6.40
2018-12-11T21:40:32.725Z,7.43
2018-12-11T21:43:01.432Z,7.57
2018-12-11T21:45:30.294Z,7.03
2018-12-11T21:47:59.893Z,6.97
2018-12-11T21:50:28.628Z,8.57
2018-12-11T21:52:57.356Z,7.07
2018-12-11T21:55:26.036Z,8.00
2018-12-11T21:57:55.540Z,8.80
2018-12-11T22:00:25.856Z,8.00
2018-12-11T22:02:55.905Z,7.87
2018-12-11T22:05:26.442Z,7.63
2018-12-11T22:07:55.279Z,7.47
2018-12-11T22:10:23.851Z,8.30
2018-12-11T22:12:52.407Z,6.67
2018-12-11T22:15:21.088Z,7.97
2018-12-11T22:17:49.754Z,7.17
2018-12-11T22:20:18.361Z,7.60
2018-12-11T22:22:46.910Z,6.77
2018-12-11T22:25:15.649Z,7.60
2018-12-11T22:27:44.264Z,7.30
2018-12-11T22:30:13.003Z,7.37
2018-12-11T22:32:41.611Z,7.10
2018-12-11T22:35:10.506Z,7.53
2018-12-11T22:37:38.975Z,7.50
2018-12-11T22:40:08.692Z,6.63
2018-12-11T22:42:37.420Z,7.63
2018-12-11T22:45:06.145Z,8.23
2018-12-11T22:47:34.736Z,7.63
2018-12-11T22:50:04.272Z,8.10
2018-12-11T22:52:33.291Z,8.33
2018-12-11T22:55:01.834Z,10.57
2018-12-11T22:57:30.961Z,9.20
2018-12-11T22:59:59.681Z,8.57
2018-12-11T23:02:29.432Z,8.07
2018-12-11T23:04:58.118Z,8.57
2018-12-11T23:07:28.077Z,9.73
2018-12-11T23:09:57.084Z,9.33
2018-12-11T23:12:25.657Z,10.37
2018-12-11T23:14:54.223Z,9.33
2018-12-11T23:17:22.771Z,9.47
2018-12-11T23:19:52.393Z,10.53
2018-12-11T23:22:21.048Z,11.73
2018-12-11T23:24:49.843Z,9.83
2018-12-11T23:27:18.359Z,8.80
2018-12-11T23:29:46.996Z,8.73
2018-12-11T23:32:16.683Z,7.70
2018-12-11T23:34:46.233Z,8.13
2018-12-11T23:37:45.569Z,7.53
2018-12-11T23:40:14.234Z,7.03
2018-12-11T23:42:42.932Z,8.90
2018-12-11T23:45:11.745Z,10.03
2018-12-11T23:47:41.795Z,7.57
2018-12-11T23:50:10.448Z,6.50
2018-12-11T23:52:39.057Z,7.27
2018-12-11T23:55:07.930Z,7.57
2018-12-11T23:57:36.484Z,6.37
